Alto, TX

2:31 AM CST on December 18, 2014 (GMT -0600)
RAWS RATCLIFF TX US | Change Station
CLOSE
Current Station
Personal Weather Station
Location: Ratcliff, TX
Elevation: 434 ft
Nearby Weather Stations

Elev 434 ft 31.40 °N, 95.14 °W | Updated 29 minutes ago

Overcast
Overcast
48 °F
Feels Like 48 °F
N
0
Wind Variable Wind from North
Gusts 0.0 mph

Today
High -- | Low -- °F
--% Chance of Precip.
Yesterday
High -- | Low -- °F
Precip. -- in
7:14 AM 5:19 PM
Waning Crescent, 16% visible
Pressure 30.15 in
Visibility 1.8 miles
Clouds Overcast 100 ft
Windchill 48 °F
Dew Point 45 °F
Humidity 89%
Rainfall 0.00 in
Snow Depth Not available.
UV 0 out of 12
Pollen 1.90 out of 12
Air Quality Not available.
Flu Activity Not available.
METAR KJSO 180815Z AUTO 03004KT 1 3/4SM BR OVC001 07/07 A3015 RMK AO2 T00780076

More Conditions Fewer Conditions

Pressure 30.15 in
Visibility 1.8 miles
Clouds Overcast 100 ft
Windchill 48 °F
Dew Point 45 °F
Humidity 89%
Rainfall 0.00 in
Snow Depth Not available.
UV 0 out of 12
Pollen 1.90 out of 12
Air Quality Not available.
Flu Activity Not available.
METAR KJSO 180815Z AUTO 03004KT 1 3/4SM BR OVC001 07/07 A3015 RMK AO2 T00780076

More Conditions Fewer Conditions

Nowcast | as of 2:08 am CST on December 18, 2014

Widespread light rain with embedded showers continue across most of the four state region early this morning. The more concentrated areas of rain were occurring mainly along and north of the Interstate 20 corridor of northeast Texas and northern Louisiana. Expect additional rainfall amounts across this region near one to to tenths of an inch. Further south...south of the Interstate 20 corridor...much lighter amounts can be expected.

×

10-Day Weather Forecast

Almanac

Astronomy

Dec. 18, 2014 Rise Set
Actual Time
Civil Twilight
Nautical Twilight
Astronomical Twilight
Moon
Length of Visible Light
Length of Day
Tomorrow will be .
, % of the Moon is Illuminated

Today's Extremes

State Highs State Lows

Community

WunderPhotos

Upload Photos

1,778,907 photos uploaded!

WunderBlogs® & News

Nearby

Air Quality

  Air Quality AQ Index Pollutant
Not available.

Snow Depth

Station Depth Elevation

Earthquake Activity

City Distance Mag. Time & Date
Minimum magnitude displayed is 2.5.

Coastal Water Temperatures

Place Temperature

Nearby Weather Stations